Middleburg, Iowa
Current Conditions -  °F | °C
As of 10:55 AM on Monday 22 Dec 2014 (Local Time) from KORC Reporting Station
Moderate Rain Moderate Rain  
Wind Chill: 35°   Ceiling: 300
Heat Index: 41°   Visibility: 4mi
Dew Point: 39°   Wind: 10mph
Humidity: 93%   Direction: 160°SSE
Pressure: 29.47"   Gusts: 16mph
Location:  43.0807°N, 96.0387°W
Report Text: KORC 221655Z AUTO 16009G14KT 4SM RA OVC003 05/04 A2947 RMK AO2 P0003
Loading
Personal Weather Stations






























Interactive Weather Map New forecast layout! Learn more

10-Day Weather Forecast

Advertisements
Track Severe Weather on mobile